Terminal Aerodrome Forecast
Issued by NWS Birmingham, AL

Current Version | Previous Version | Text Only | Print | Product List | Glossary On
Versions: 1 2 3 4 5 6 7 8 9 10 11 12 13 14 15 16 17 18 19 20 21 22 23 24 25
000
FTUS44 KBMX 030520
TAFBHM
TAF
KBHM 030520Z 0306/0406 24007KT 6SM BR VCSH OVC008
     FM031500 33007KT P6SM BKN015
     FM031800 31009KT P6SM BKN050=

USA.gov is the U.S. government's official web portal to all federal, state and local government web resources and services.